createdAt,value
2019-05-11T07:59:54.571Z,99.90
2019-05-11T08:12:01.665Z,99.90
2019-05-11T08:20:50.321Z,99.90
2019-05-11T08:40:19.684Z,99.90
2019-05-11T08:46:13.773Z,99.90
2019-05-11T08:53:17.613Z,99.90
2019-05-11T08:58:31.429Z,99.90
2019-05-11T09:03:32.501Z,99.90
2019-05-11T09:08:34.474Z,99.90
2019-05-11T09:13:52.322Z,99.90
2019-05-11T09:18:53.178Z,99.90
2019-05-11T09:24:40.440Z,99.90
2019-05-11T09:29:45.023Z,99.80
2019-05-11T09:37:03.435Z,99.10
2019-05-11T09:42:14.093Z,99.20
2019-05-11T09:48:03.186Z,99.90
2019-05-11T09:54:30.340Z,99.90
2019-05-11T09:59:20.428Z,99.90
2019-05-11T10:05:44.708Z,99.90
2019-05-11T10:11:36.777Z,99.50
2019-05-11T10:18:50.851Z,99.40
2019-05-11T10:23:52.658Z,97.70
2019-05-11T10:29:08.879Z,95.50
2019-05-11T10:33:59.425Z,95.20
2019-05-11T10:39:20.045Z,94.00
2019-05-11T10:44:29.712Z,96.20
2019-05-11T10:49:39.392Z,92.90
2019-05-11T10:55:35.797Z,93.10
2019-05-11T11:00:42.231Z,90.10
2019-05-11T11:05:33.412Z,82.40
2019-05-11T11:10:25.041Z,82.30
2019-05-11T11:15:24.933Z,75.10
2019-05-11T11:20:15.069Z,78.60
2019-05-11T11:25:51.585Z,77.60
2019-05-11T11:32:40.148Z,79.60
2019-05-11T11:37:42.407Z,81.50
2019-05-11T11:43:18.705Z,76.80
2019-05-11T11:48:16.100Z,75.70
2019-05-11T11:55:40.406Z,73.70
2019-05-11T12:00:52.905Z,73.60
2019-05-11T12:06:52.081Z,63.10
2019-05-11T12:12:23.291Z,59.90
2019-05-11T12:18:01.791Z,64.80
2019-05-11T12:24:34.392Z,72.10
2019-05-11T12:31:34.126Z,77.90
2019-05-11T12:38:09.316Z,81.20
2019-05-11T12:48:29.871Z,67.60
2019-05-11T12:53:20.409Z,68.20
